DTKA

Tabarka 7 Novembre Airport

Tabarka, Tunisia
METAR DTKA 181500Z 32004KT 270V360 9999 SCT020 15/07 Q1024 NOSIG
Observed Flight Rules
Jan-18 @ 15:00 UTC (43 minutes ago) Visual Flight Rules
Wind Visibility Clouds
320° at 4 knots 10,000+ meters
  • Scattered at 2,000' AGL
Temperatures Readings
Current 15°C / 59°F
Dewpoint 7°C / 45°F
Humidity 59%
Altimeter 30.24" Hg
Pressure 1024 hPa
Elevation 21
METAR DTKA 181500Z 32004KT 270V360 9999 SCT020 15/07 Q1024 NOSIG
Observed Flight Rules
Jan-18 @ 15:00 UTC
(43 minutes ago)
VFR
Wind Visibility
320° at 4 knots 10,000+ meters
Clouds
  • Scattered at 2,000' AGL
Temperature Dewpoint
15°C / 59°F 7°C / 45°F
Humidity Altimeter Pressure
59% 30.24" Hg 1024 hPa